Time;durP1;ratioP1;P1;durP2;ratioP2;P2;SDS_P1;SDS_P2;PMS_P1;PMS_P2;Temp;Humidity;BMP_temperature;BMP_pressure;BME280_temperature;BME280_humidity;BME280_pressure;Samples;Min_cycle;Max_cycle;Signal;HPM_P1;HPM_P2
2021/04/23 00:00:30;;;;;;;7.30;4.18;;;6.80;90.20;;;;;;2091532;28;20434;-68
2021/04/23 00:01:31;;;;;;;6.75;4.10;;;6.80;90.50;;;;;;2092535;28;20479;-68
2021/04/23 00:02:32;;;;;;;7.60;3.80;;;6.80;90.10;;;;;;2097140;28;20420;-68
2021/04/23 00:04:03;;;;;;;7.28;4.45;;;6.70;90.30;;;;;;2096867;28;20082;-68
2021/04/23 00:05:05;;;;;;;6.88;4.13;;;6.70;91.40;;;;;;2077151;28;20029;-68
2021/04/23 00:06:17;;;;;;;7.55;4.20;;;6.60;90.00;;;;;;2089375;28;20112;-68
2021/04/23 00:07:18;;;;;;;7.47;3.80;;;6.60;90.60;;;;;;2097190;28;20943;-68
2021/04/23 00:08:20;;;;;;;9.50;4.10;;;6.60;90.30;;;;;;2102118;28;20391;-68
2021/04/23 00:09:24;;;;;;;9.25;4.30;;;6.60;90.60;;;;;;2106101;28;20031;-68
2021/04/23 00:10:25;;;;;;;7.70;4.40;;;6.60;90.90;;;;;;2105412;28;20034;-68
2021/04/23 00:11:38;;;;;;;6.15;4.75;;;6.50;90.90;;;;;;2105476;28;20039;-68
2021/04/23 00:12:39;;;;;;;7.60;4.53;;;6.50;92.00;;;;;;2105669;28;20514;-68
2021/04/23 00:13:41;;;;;;;8.90;4.47;;;6.50;91.20;;;;;;2105226;28;20379;-68
2021/04/23 00:14:48;;;;;;;8.75;4.65;;;6.50;91.30;;;;;;2105256;28;20082;-68
2021/04/23 00:15:51;;;;;;;7.55;4.07;;;6.50;91.70;;;;;;2103460;28;20039;-68
2021/04/23 00:16:53;;;;;;;7.82;4.90;;;6.40;91.20;;;;;;2105784;28;20020;-68
2021/04/23 00:17:54;;;;;;;9.05;4.68;;;6.40;91.50;;;;;;2105894;28;20024;-68
2021/04/23 00:18:54;;;;;;;11.50;4.65;;;6.40;91.80;;;;;;2105996;28;20112;-68
2021/04/23 00:19:55;;;;;;;7.45;5.13;;;6.40;92.10;;;;;;2105853;28;20035;-68
2021/04/23 00:20:56;;;;;;;7.72;4.30;;;6.30;92.10;;;;;;2106189;28;20028;-68
2021/04/23 00:21:57;;;;;;;6.90;4.50;;;6.40;92.10;;;;;;2106028;28;20032;-68
2021/04/23 00:23:02;;;;;;;9.55;4.00;;;6.30;91.80;;;;;;2105532;28;20055;-68
2021/04/23 00:24:03;;;;;;;8.07;4.53;;;6.30;92.00;;;;;;2105666;28;20024;-68
2021/04/23 00:25:04;;;;;;;9.88;4.85;;;6.30;92.40;;;;;;2105974;28;20063;-68
2021/04/23 00:26:06;;;;;;;9.20;5.10;;;6.30;92.40;;;;;;2105761;28;20062;-68
2021/04/23 00:27:08;;;;;;;6.35;4.30;;;6.30;92.40;;;;;;2105597;28;20502;-68
2021/04/23 00:28:11;;;;;;;8.77;5.03;;;6.40;96.00;;;;;;2097667;28;20032;-68
2021/04/23 00:29:12;;;;;;;7.68;4.30;;;6.30;93.50;;;;;;2097292;28;20483;-68
2021/04/23 00:30:13;;;;;;;8.10;4.97;;;6.20;93.10;;;;;;2097561;28;20527;-68
2021/04/23 00:31:14;;;;;;;6.70;4.03;;;6.20;92.90;;;;;;2097069;28;20039;-68
2021/04/23 00:32:14;;;;;;;6.03;4.50;;;6.20;92.60;;;;;;2098950;28;20383;-68
2021/04/23 00:33:16;;;;;;;10.57;5.00;;;6.20;93.00;;;;;;2097662;28;20052;-68
2021/04/23 00:34:16;;;;;;;9.02;4.68;;;6.20;95.20;;;;;;2097364;28;20029;-68
2021/04/23 00:35:17;;;;;;;9.50;4.22;;;6.10;93.40;;;;;;2097243;28;20062;-68
2021/04/23 00:36:18;;;;;;;5.82;4.50;;;6.10;92.50;;;;;;2097701;28;20111;-68
2021/04/23 00:37:18;;;;;;;8.75;4.72;;;6.10;92.50;;;;;;2097197;28;20024;-68
2021/04/23 00:38:23;;;;;;;7.43;4.88;;;6.00;92.60;;;;;;2096859;28;20635;-68
2021/04/23 00:39:23;;;;;;;7.65;4.90;;;6.00;92.80;;;;;;2096582;28;20090;-68
2021/04/23 00:40:35;;;;;;;8.75;5.38;;;6.00;93.20;;;;;;2097423;28;20024;-68
2021/04/23 00:41:36;;;;;;;12.48;5.18;;;6.00;94.00;;;;;;2097424;28;20025;-68
2021/04/23 00:42:36;;;;;;;10.88;5.20;;;6.00;93.30;;;;;;2096579;28;20032;-68
2021/04/23 00:43:40;;;;;;;12.13;5.13;;;5.90;93.20;;;;;;2096930;28;20471;-68
2021/04/23 00:44:41;;;;;;;11.07;4.82;;;5.90;93.30;;;;;;2097367;28;20028;-68
2021/04/23 00:45:42;;;;;;;6.97;4.72;;;5.90;93.30;;;;;;2097880;28;20115;-68
2021/04/23 00:46:43;;;;;;;8.80;4.13;;;5.90;93.30;;;;;;2103764;28;20032;-68
2021/04/23 00:47:46;;;;;;;11.07;4.47;;;5.90;93.10;;;;;;2105109;28;20127;-68
2021/04/23 00:48:48;;;;;;;8.13;5.13;;;5.80;93.30;;;;;;2100617;28;20071;-68
2021/04/23 00:49:50;;;;;;;7.78;4.15;;;5.80;93.60;;;;;;2093504;28;20033;-68
2021/04/23 00:50:55;;;;;;;9.15;4.32;;;5.80;93.30;;;;;;2097261;28;20379;-68
2021/04/23 00:51:59;;;;;;;11.25;5.50;;;5.80;93.10;;;;;;2101783;28;20035;-68
2021/04/23 00:53:00;;;;;;;6.28;4.57;;;5.80;93.90;;;;;;2102895;28;20032;-68
2021/04/23 00:54:04;;;;;;;7.65;4.63;;;5.70;93.80;;;;;;2087979;28;20056;-68
2021/04/23 00:55:06;;;;;;;8.43;5.07;;;5.70;94.10;;;;;;2096872;28;20124;-68
2021/04/23 00:56:09;;;;;;;8.60;5.70;;;5.70;94.10;;;;;;2105341;28;20475;-68
2021/04/23 00:57:10;;;;;;;9.40;5.20;;;5.70;94.20;;;;;;2097824;28;20024;-68
2021/04/23 00:58:15;;;;;;;8.63;5.15;;;5.70;94.00;;;;;;2097124;28;20028;-68
2021/04/23 00:59:16;;;;;;;10.05;5.45;;;5.70;93.80;;;;;;2097597;28;20373;-68
2021/04/23 01:00:17;;;;;;;9.88;5.13;;;5.70;93.50;;;;;;2096618;28;20050;-68
2021/04/23 01:01:29;;;;;;;14.15;5.50;;;5.70;94.20;;;;;;2098916;28;20017;-68
2021/04/23 01:02:29;;;;;;;7.13;4.75;;;5.70;94.70;;;;;;2104696;28;20107;-68
2021/04/23 01:03:31;;;;;;;11.27;5.30;;;5.60;94.20;;;;;;2106239;28;20032;-68
2021/04/23 01:04:31;;;;;;;8.23;4.90;;;5.60;94.10;;;;;;2105475;28;20024;-69
2021/04/23 01:05:35;;;;;;;7.55;5.10;;;5.60;94.20;;;;;;2105777;28;20077;-68
2021/04/23 01:06:37;;;;;;;7.22;4.57;;;5.60;94.30;;;;;;2105373;28;20154;-68
2021/04/23 01:07:50;;;;;;;7.13;5.43;;;5.60;93.60;;;;;;2105488;28;20473;-68
2021/04/23 01:08:53;;;;;;;10.48;5.13;;;5.50;94.40;;;;;;2105416;28;20028;-68
2021/04/23 01:09:54;;;;;;;14.02;5.90;;;5.50;94.10;;;;;;2105591;28;20055;-69
2021/04/23 01:11:01;;;;;;;12.63;5.82;;;5.50;94.40;;;;;;2105590;28;20032;-69
2021/04/23 01:12:05;;;;;;;7.22;4.72;;;5.50;95.10;;;;;;2105490;28;20054;-68
2021/04/23 01:13:06;;;;;;;9.60;4.97;;;5.50;94.40;;;;;;2104874;28;20146;-68
2021/04/23 01:14:08;;;;;;;11.80;5.13;;;5.50;94.30;;;;;;2103634;28;20530;-68
2021/04/23 01:15:10;;;;;;;9.88;5.47;;;5.40;94.00;;;;;;2097188;28;20124;-69
2021/04/23 01:16:18;;;;;;;9.82;4.43;;;5.40;93.90;;;;;;2096722;28;20544;-68
2021/04/23 01:17:18;;;;;;;13.68;5.65;;;5.40;93.80;;;;;;2097414;28;20016;-68
2021/04/23 01:18:19;;;;;;;11.43;6.55;;;5.40;93.70;;;;;;2096927;28;20024;-68
2021/04/23 01:19:23;;;;;;;10.38;4.80;;;5.40;94.50;;;;;;2096235;28;20027;-68
2021/04/23 01:20:24;;;;;;;10.25;5.88;;;5.40;94.30;;;;;;2096390;28;20039;-68
2021/04/23 01:21:32;;;;;;;8.70;5.38;;;5.40;94.40;;;;;;2097071;28;20023;-68
2021/04/23 01:22:33;;;;;;;9.43;5.00;;;5.40;95.10;;;;;;2096198;28;20044;-68
2021/04/23 01:23:36;;;;;;;12.45;6.03;;;5.40;94.60;;;;;;2097274;28;20434;-68
2021/04/23 01:24:36;;;;;;;10.80;5.68;;;5.30;94.60;;;;;;2097149;28;20031;-68
2021/04/23 01:25:37;;;;;;;10.43;5.47;;;5.30;94.80;;;;;;2097093;28;20028;-68
2021/04/23 01:26:45;;;;;;;9.13;5.40;;;5.30;94.90;;;;;;2097055;28;20403;-68
2021/04/23 01:27:46;;;;;;;11.02;6.03;;;5.30;95.30;;;;;;2096833;28;20090;-69
2021/04/23 01:28:49;;;;;;;10.10;5.30;;;5.30;94.70;;;;;;2096722;28;20033;-69
2021/04/23 01:29:50;;;;;;;11.00;5.85;;;5.30;95.00;;;;;;2097223;28;20032;-69
2021/04/23 01:30:50;;;;;;;9.70;6.38;;;5.30;95.50;;;;;;2096669;28;20096;-68
2021/04/23 01:31:54;;;;;;;11.80;5.78;;;5.20;95.60;;;;;;2097237;28;20033;-69
2021/04/23 01:32:55;;;;;;;7.03;5.03;;;5.20;95.40;;;;;;2096143;28;20378;-68
2021/04/23 01:34:04;;;;;;;8.32;5.85;;;5.20;95.30;;;;;;2096831;28;20048;-68
2021/04/23 01:35:08;;;;;;;9.43;5.50;;;5.20;95.70;;;;;;2096768;28;20034;-68
2021/04/23 01:36:12;;;;;;;10.23;6.13;;;5.20;96.00;;;;;;2096874;28;20054;-68
2021/04/23 01:37:13;;;;;;;11.45;5.80;;;5.10;96.00;;;;;;2097300;28;20436;-68
2021/04/23 01:38:15;;;;;;;13.10;6.10;;;5.10;96.20;;;;;;2097055;28;20024;-68
2021/04/23 01:39:19;;;;;;;10.18;6.18;;;5.10;95.80;;;;;;2096656;28;20021;-68
2021/04/23 01:40:21;;;;;;;9.05;5.60;;;5.10;96.10;;;;;;2097044;28;20039;-68
2021/04/23 01:41:22;;;;;;;11.07;5.90;;;5.10;95.80;;;;;;2095939;28;20029;-68
2021/04/23 01:42:24;;;;;;;9.93;5.35;;;5.10;96.30;;;;;;2087428;28;20388;-68
2021/04/23 01:43:24;;;;;;;10.82;5.88;;;5.10;95.90;;;;;;2086200;28;20515;-69
2021/04/23 01:44:26;;;;;;;8.43;5.60;;;5.00;95.60;;;;;;2102259;28;20020;-68
2021/04/23 01:45:27;;;;;;;7.07;5.03;;;5.00;95.80;;;;;;2099861;28;20024;-68
2021/04/23 01:46:28;;;;;;;10.75;5.45;;;5.00;95.60;;;;;;2096758;28;20111;-69
2021/04/23 01:47:28;;;;;;;10.30;6.00;;;5.00;95.30;;;;;;2102154;28;20028;-68
2021/04/23 01:48:29;;;;;;;11.57;6.38;;;5.00;95.80;;;;;;2102892;28;20056;-68
2021/04/23 01:49:31;;;;;;;8.98;5.30;;;5.20;99.90;;;;;;2096916;28;20093;-68
2021/04/23 01:50:32;;;;;;;9.48;5.55;;;5.00;96.10;;;;;;2096784;28;20024;-68
2021/04/23 01:51:33;;;;;;;9.23;5.10;;;5.00;96.00;;;;;;2096354;28;20029;-68
2021/04/23 01:52:33;;;;;;;9.07;6.30;;;4.90;95.60;;;;;;2095767;28;20507;-68
2021/04/23 01:53:34;;;;;;;12.57;6.03;;;4.90;95.40;;;;;;2096160;28;20028;-68
2021/04/23 01:54:35;;;;;;;10.77;5.20;;;4.90;95.90;;;;;;2096143;28;20582;-69
2021/04/23 01:55:37;;;;;;;9.05;6.00;;;4.90;95.40;;;;;;2103687;28;20502;-68
2021/04/23 01:56:39;;;;;;;10.63;6.32;;;4.90;95.60;;;;;;2096820;28;20118;-68
2021/04/23 01:57:39;;;;;;;8.98;5.55;;;4.90;96.20;;;;;;2096831;28;20047;-68
2021/04/23 01:58:41;;;;;;;10.45;6.30;;;4.90;96.10;;;;;;2096662;28;20035;-68
2021/04/23 01:59:43;;;;;;;12.25;6.47;;;4.90;96.00;;;;;;2096797;28;20020;-68
2021/04/23 02:00:48;;;;;;;8.98;5.82;;;4.80;96.00;;;;;;2097409;28;20090;-68
2021/04/23 02:01:49;;;;;;;9.13;5.63;;;4.80;96.40;;;;;;2098098;28;20056;-68
2021/04/23 02:02:55;;;;;;;9.68;5.53;;;4.80;96.00;;;;;;2097255;28;20041;-68
2021/04/23 02:03:55;;;;;;;15.52;5.68;;;4.80;96.20;;;;;;2097686;28;20028;-68
2021/04/23 02:04:56;;;;;;;12.00;6.38;;;4.80;95.60;;;;;;2098029;28;20020;-68
2021/04/23 02:05:57;;;;;;;9.38;6.15;;;4.80;96.10;;;;;;2098025;28;20364;-68
2021/04/23 02:06:59;;;;;;;9.05;6.35;;;4.80;96.60;;;;;;2098194;28;20056;-68
2021/04/23 02:08:00;;;;;;;10.85;5.82;;;4.70;96.70;;;;;;2097951;28;20399;-68
2021/04/23 02:09:02;;;;;;;12.45;6.50;;;4.70;96.80;;;;;;2097973;28;20017;-68
2021/04/23 02:10:08;;;;;;;8.02;4.82;;;4.70;97.00;;;;;;2102479;28;20059;-68
2021/04/23 02:11:15;;;;;;;9.38;5.90;;;4.70;96.70;;;;;;2092610;28;20021;-69
2021/04/23 02:12:16;;;;;;;11.52;7.00;;;4.70;96.60;;;;;;2096173;28;20485;-68
2021/04/23 02:13:22;;;;;;;9.73;5.35;;;4.70;96.50;;;;;;2098042;28;20031;-68
2021/04/23 02:14:24;;;;;;;10.98;6.68;;;4.60;96.20;;;;;;2097889;28;20028;-68
2021/04/23 02:15:27;;;;;;;9.93;7.20;;;4.70;96.80;;;;;;2098173;28;20021;-68
2021/04/23 02:16:28;;;;;;;14.13;6.95;;;4.60;97.10;;;;;;2097446;28;20024;-68
2021/04/23 02:17:28;;;;;;;8.95;6.43;;;4.60;97.20;;;;;;2097970;28;20016;-68
2021/04/23 02:18:29;;;;;;;9.90;6.10;;;4.60;97.40;;;;;;2097839;28;20108;-68
2021/04/23 02:19:29;;;;;;;10.15;6.13;;;4.60;97.00;;;;;;2097916;28;20032;-68
2021/04/23 02:20:34;;;;;;;11.38;7.15;;;4.60;97.00;;;;;;2097601;28;20031;-68
2021/04/23 02:21:38;;;;;;;8.20;5.95;;;4.60;97.10;;;;;;2098178;28;20130;-68
2021/04/23 02:22:40;;;;;;;11.32;6.40;;;4.60;96.90;;;;;;2097124;28;20059;-68
2021/04/23 02:23:42;;;;;;;10.77;6.57;;;4.50;96.80;;;;;;2097848;28;20020;-68
2021/04/23 02:24:43;;;;;;;8.88;6.18;;;4.50;97.10;;;;;;2096561;28;20519;-68
2021/04/23 02:25:43;;;;;;;7.50;6.15;;;4.50;97.20;;;;;;2100181;28;20357;-68
2021/04/23 02:26:44;;;;;;;10.20;6.88;;;4.50;97.10;;;;;;2106052;28;20020;-68
2021/04/23 02:27:45;;;;;;;9.90;6.32;;;4.50;97.20;;;;;;2106266;28;20040;-68
2021/04/23 02:28:49;;;;;;;11.13;6.32;;;4.50;96.70;;;;;;2105999;28;20024;-68
2021/04/23 02:29:50;;;;;;;10.00;5.95;;;4.50;97.00;;;;;;2106476;28;20119;-68
2021/04/23 02:31:02;;;;;;;11.23;6.80;;;4.40;96.60;;;;;;2106041;28;20472;-68
2021/04/23 02:32:03;;;;;;;10.63;6.45;;;4.50;97.10;;;;;;2104492;28;20039;-68
2021/04/23 02:33:05;;;;;;;9.00;5.80;;;4.40;96.60;;;;;;2096974;28;20028;-68
2021/04/23 02:34:10;;;;;;;12.80;6.90;;;4.40;97.10;;;;;;2102985;28;20071;-68
2021/04/23 02:35:13;;;;;;;11.65;7.20;;;4.40;97.40;;;;;;2105355;28;20483;-68
2021/04/23 02:36:15;;;;;;;9.45;6.75;;;4.40;97.80;;;;;;2105656;28;20047;-68
2021/04/23 02:37:16;;;;;;;12.18;6.93;;;4.40;97.70;;;;;;2105896;28;20131;-68
2021/04/23 02:38:17;;;;;;;16.38;7.28;;;4.40;97.60;;;;;;2106485;28;20521;-68
2021/04/23 02:39:19;;;;;;;8.23;6.63;;;4.30;97.80;;;;;;2102423;28;20024;-68
2021/04/23 02:40:24;;;;;;;12.02;6.95;;;4.30;97.40;;;;;;2097801;28;20119;-68
2021/04/23 02:41:25;;;;;;;12.15;7.15;;;4.30;97.10;;;;;;2097897;28;20371;-68
2021/04/23 02:42:25;;;;;;;11.82;7.38;;;4.30;96.90;;;;;;2097270;28;20024;-68
2021/04/23 02:43:29;;;;;;;10.70;7.03;;;4.30;97.20;;;;;;2097604;28;20486;-68
2021/04/23 02:44:30;;;;;;;10.55;6.65;;;4.30;97.60;;;;;;2097710;28;20194;-68
2021/04/23 02:45:36;;;;;;;7.82;6.50;;;4.30;97.50;;;;;;2098209;28;20573;-68
2021/04/23 02:46:37;;;;;;;10.90;7.25;;;4.30;97.60;;;;;;2103733;28;20414;-68
2021/04/23 02:47:39;;;;;;;12.68;7.43;;;4.30;97.70;;;;;;2104597;28;20028;-68
2021/04/23 02:48:42;;;;;;;15.63;8.02;;;4.30;98.00;;;;;;2101216;28;20028;-68
2021/04/23 02:49:42;;;;;;;9.93;7.47;;;4.20;98.10;;;;;;2097428;28;20369;-68
2021/04/23 02:50:48;;;;;;;12.85;7.28;;;4.20;97.90;;;;;;2097672;28;20035;-68
2021/04/23 02:51:49;;;;;;;12.73;8.15;;;4.20;97.90;;;;;;2097661;28;20020;-68
2021/04/23 02:52:50;;;;;;;10.38;6.93;;;4.20;98.00;;;;;;2097160;28;20024;-68
2021/04/23 02:53:51;;;;;;;11.70;7.15;;;4.20;98.20;;;;;;2097578;28;20024;-68
2021/04/23 02:54:52;;;;;;;13.43;6.88;;;4.20;97.90;;;;;;2100337;28;20036;-68
2021/04/23 02:55:53;;;;;;;11.32;6.93;;;4.20;97.60;;;;;;2105958;28;20024;-68
2021/04/23 02:56:54;;;;;;;14.52;7.20;;;4.20;97.80;;;;;;2100021;28;20024;-68
2021/04/23 02:57:58;;;;;;;13.52;7.50;;;4.20;98.00;;;;;;2097563;28;20039;-68
2021/04/23 02:58:59;;;;;;;10.40;7.25;;;4.20;98.00;;;;;;2097461;28;20107;-68
2021/04/23 03:00:00;;;;;;;9.57;6.45;;;4.10;98.10;;;;;;2097429;28;20025;-68
2021/04/23 03:01:07;;;;;;;10.00;6.55;;;4.10;98.10;;;;;;2097646;28;20044;-68
2021/04/23 03:02:09;;;;;;;10.30;6.95;;;4.10;98.20;;;;;;2088221;28;20380;-68
2021/04/23 03:03:13;;;;;;;10.95;7.30;;;4.10;97.90;;;;;;2091602;28;20025;-68
2021/04/23 03:04:14;;;;;;;10.60;7.85;;;4.10;97.80;;;;;;2096399;28;20444;-68
2021/04/23 03:05:15;;;;;;;11.77;6.72;;;4.10;98.00;;;;;;2096447;28;20025;-68
2021/04/23 03:06:16;;;;;;;11.75;7.28;;;4.10;98.00;;;;;;2096590;28;20038;-68
2021/04/23 03:07:19;;;;;;;12.57;6.57;;;4.00;98.20;;;;;;2096727;28;20039;-68
2021/04/23 03:08:20;;;;;;;11.45;7.15;;;4.10;98.20;;;;;;2096399;28;20024;-68
2021/04/23 03:09:21;;;;;;;8.43;6.80;;;4.00;97.90;;;;;;2097817;28;20032;-68
2021/04/23 03:10:26;;;;;;;11.77;7.60;;;4.10;97.70;;;;;;2099308;28;20028;-68
2021/04/23 03:11:27;;;;;;;14.55;7.75;;;4.00;98.00;;;;;;2096991;28;20032;-68
2021/04/23 03:12:28;;;;;;;12.45;7.22;;;4.00;98.10;;;;;;2095984;28;20111;-68
2021/04/23 03:13:29;;;;;;;9.65;7.05;;;4.00;98.10;;;;;;2096893;28;20035;-68
2021/04/23 03:14:30;;;;;;;10.70;7.22;;;4.00;98.20;;;;;;2096393;28;20514;-68
2021/04/23 03:15:31;;;;;;;10.10;7.82;;;4.00;98.00;;;;;;2096533;28;20563;-68
2021/04/23 03:16:32;;;;;;;13.90;7.97;;;4.00;98.50;;;;;;2096708;28;20422;-68
2021/04/23 03:17:33;;;;;;;9.60;6.68;;;4.00;98.30;;;;;;2096229;28;20025;-68
2021/04/23 03:18:37;;;;;;;10.98;7.85;;;3.90;97.90;;;;;;2096676;28;20027;-68
2021/04/23 03:19:37;;;;;;;12.63;8.10;;;4.00;98.30;;;;;;2096383;28;20052;-68
2021/04/23 03:20:38;;;;;;;10.68;6.85;;;3.90;98.50;;;;;;2096659;28;20138;-68
2021/04/23 03:21:40;;;;;;;7.95;6.43;;;3.90;97.80;;;;;;2096540;28;20062;-68
2021/04/23 03:22:41;;;;;;;11.38;6.85;;;3.90;97.60;;;;;;2095977;28;20020;-68
2021/04/23 03:23:43;;;;;;;16.30;7.18;;;3.90;97.60;;;;;;2095665;28;20017;-68
2021/04/23 03:24:43;;;;;;;10.98;7.53;;;3.90;98.00;;;;;;2095504;28;20032;-68
2021/04/23 03:25:44;;;;;;;11.98;7.68;;;3.90;98.30;;;;;;2098243;28;20025;-68
2021/04/23 03:26:45;;;;;;;11.00;7.43;;;3.90;98.30;;;;;;2104593;28;20020;-68
2021/04/23 03:27:46;;;;;;;12.50;7.90;;;3.90;98.50;;;;;;2104615;28;20043;-68
2021/04/23 03:28:47;;;;;;;10.77;7.57;;;3.90;98.60;;;;;;2104754;28;20515;-68
2021/04/23 03:29:48;;;;;;;9.88;7.07;;;3.90;99.10;;;;;;2104642;28;20048;-68
2021/04/23 03:30:49;;;;;;;11.32;8.15;;;3.90;98.70;;;;;;2104582;28;20090;-68
2021/04/23 03:31:49;;;;;;;12.07;7.00;;;3.80;98.90;;;;;;2103723;28;20047;-68
2021/04/23 03:32:50;;;;;;;8.40;6.93;;;3.80;98.70;;;;;;2096028;28;20086;-68
2021/04/23 03:33:51;;;;;;;10.48;7.35;;;3.80;98.60;;;;;;2096389;28;20103;-68
2021/04/23 03:34:52;;;;;;;11.38;7.00;;;3.80;98.40;;;;;;2095842;28;20033;-68
2021/04/23 03:35:55;;;;;;;12.00;7.72;;;3.80;98.90;;;;;;2101552;28;20479;-68
2021/04/23 03:36:56;;;;;;;14.45;7.72;;;3.80;99.50;;;;;;2104512;28;20031;-68
2021/04/23 03:37:59;;;;;;;20.33;7.60;;;3.80;99.20;;;;;;2104444;28;20356;-68
2021/04/23 03:39:00;;;;;;;11.52;7.43;;;3.80;99.30;;;;;;2104449;28;20413;-68
2021/04/23 03:40:02;;;;;;;9.65;7.22;;;3.80;99.40;;;;;;2103580;28;20173;-68
2021/04/23 03:41:08;;;;;;;12.98;6.93;;;3.80;99.20;;;;;;2103765;28;20039;-68
2021/04/23 03:42:09;;;;;;;10.60;7.45;;;3.70;99.30;;;;;;2104207;28;20387;-68
2021/04/23 03:43:10;;;;;;;13.15;8.27;;;3.70;99.30;;;;;;2100371;28;20091;-68
2021/04/23 03:44:11;;;;;;;12.80;6.80;;;3.70;99.00;;;;;;2099273;28;20554;-68
2021/04/23 03:45:13;;;;;;;13.10;7.20;;;3.70;98.90;;;;;;2101178;28;20028;-68
2021/04/23 03:46:14;;;;;;;14.95;7.72;;;3.70;98.90;;;;;;2096081;28;20024;-68
2021/04/23 03:47:15;;;;;;;9.23;7.07;;;3.70;99.10;;;;;;2099716;28;20048;-68
2021/04/23 03:48:16;;;;;;;12.15;7.53;;;3.70;99.10;;;;;;2103385;28;20024;-68
2021/04/23 03:49:16;;;;;;;10.93;6.95;;;3.70;99.20;;;;;;2095986;28;20637;-68
2021/04/23 03:50:24;;;;;;;9.82;7.32;;;3.70;99.10;;;;;;2100106;28;20022;-68
2021/04/23 03:51:25;;;;;;;14.52;7.10;;;3.60;99.20;;;;;;2098528;28;20032;-68
2021/04/23 03:52:26;;;;;;;10.13;7.35;;;3.60;99.00;;;;;;2100945;28;20028;-68
2021/04/23 03:53:27;;;;;;;12.20;7.90;;;3.60;98.70;;;;;;2098937;28;20472;-68
2021/04/23 03:54:28;;;;;;;12.05;7.85;;;3.60;98.60;;;;;;2095921;28;20032;-68
2021/04/23 03:55:32;;;;;;;11.80;7.70;;;3.60;98.80;;;;;;2103474;28;20025;-68
2021/04/23 03:56:34;;;;;;;12.32;7.68;;;3.60;99.40;;;;;;2100704;28;20138;-68
2021/04/23 03:57:35;;;;;;;14.75;8.18;;;3.60;99.40;;;;;;2095592;28;20040;-68
2021/04/23 03:58:36;;;;;;;13.95;8.43;;;3.60;99.40;;;;;;2096078;28;20490;-68
2021/04/23 03:59:37;;;;;;;12.38;7.90;;;3.60;99.60;;;;;;2095703;28;20362;-68
2021/04/23 04:00:42;;;;;;;9.20;7.03;;;3.60;99.40;;;;;;2087986;28;20043;-69
2021/04/23 04:01:42;;;;;;;10.32;7.60;;;3.60;99.20;;;;;;2092708;28;20036;-68
2021/04/23 04:02:43;;;;;;;12.70;8.07;;;3.60;98.90;;;;;;2095512;28;20052;-68
2021/04/23 04:03:45;;;;;;;11.55;8.23;;;3.60;99.20;;;;;;2096075;28;20063;-68
2021/04/23 04:04:46;;;;;;;13.18;6.93;;;3.60;99.50;;;;;;2098277;28;20028;-68
2021/04/23 04:05:47;;;;;;;10.93;7.25;;;3.60;98.90;;;;;;2104000;28;20492;-68
2021/04/23 04:06:48;;;;;;;17.45;7.45;;;3.60;98.80;;;;;;2104340;28;20032;-68
2021/04/23 04:07:49;;;;;;;11.27;7.57;;;3.60;99.10;;;;;;2104327;28;20487;-68
2021/04/23 04:08:49;;;;;;;13.82;7.13;;;3.60;98.90;;;;;;2104450;28;20065;-68
2021/04/23 04:09:50;;;;;;;13.20;7.43;;;3.60;98.90;;;;;;2104455;28;20032;-68
2021/04/23 04:10:51;;;;;;;14.65;7.28;;;3.50;99.20;;;;;;2104311;28;20428;-68
2021/04/23 04:11:52;;;;;;;11.68;6.97;;;3.50;99.40;;;;;;2104021;28;20036;-68
2021/04/23 04:12:52;;;;;;;9.50;6.78;;;3.50;99.30;;;;;;2103725;28;20028;-68
2021/04/23 04:13:53;;;;;;;12.98;7.25;;;3.50;99.40;;;;;;2104601;28;20099;-68
2021/04/23 04:14:53;;;;;;;8.07;6.85;;;3.50;99.30;;;;;;2098013;28;20041;-68
2021/04/23 04:15:54;;;;;;;12.55;6.85;;;3.50;99.30;;;;;;2095964;28;20085;-68
2021/04/23 04:16:55;;;;;;;11.75;7.78;;;3.50;99.20;;;;;;2095826;28;20035;-68
2021/04/23 04:17:55;;;;;;;13.23;7.70;;;3.50;99.10;;;;;;2095971;28;20037;-68
2021/04/23 04:18:56;;;;;;;11.90;7.75;;;3.50;99.10;;;;;;2095867;28;20048;-68
2021/04/23 04:19:56;;;;;;;11.68;7.93;;;3.50;99.50;;;;;;2095412;28;20388;-68
2021/04/23 04:20:57;;;;;;;11.90;7.97;;;3.50;99.80;;;;;;2095934;28;20082;-68
2021/04/23 04:21:59;;;;;;;13.35;7.88;;;3.50;99.90;;;;;;2095995;28;20093;-68
2021/04/23 04:23:00;;;;;;;11.10;8.43;;;3.50;99.90;;;;;;2100974;28;20776;-68
2021/04/23 04:24:00;;;;;;;11.45;8.40;;;3.50;99.90;;;;;;2104300;28;20402;-68
2021/04/23 04:25:02;;;;;;;10.73;7.38;;;3.50;99.90;;;;;;2104212;28;20032;-68
2021/04/23 04:26:03;;;;;;;13.40;8.02;;;3.50;99.90;;;;;;2104257;28;20028;-68
2021/04/23 04:27:04;;;;;;;8.27;6.45;;;3.50;99.90;;;;;;2101528;28;20024;-68
2021/04/23 04:28:06;;;;;;;12.75;8.02;;;3.50;99.30;;;;;;2097415;28;20070;-68
2021/04/23 04:29:07;;;;;;;11.73;8.13;;;3.50;99.60;;;;;;2098107;28;20071;-68
2021/04/23 04:30:08;;;;;;;10.88;7.60;;;3.50;99.70;;;;;;2100901;28;20024;-68
2021/04/23 04:31:09;;;;;;;11.68;8.15;;;3.50;99.70;;;;;;2101259;28;20022;-68
2021/04/23 04:32:10;;;;;;;18.08;8.93;;;3.40;99.90;;;;;;2102595;28;20032;-68
2021/04/23 04:33:11;;;;;;;10.85;7.65;;;3.50;99.60;;;;;;2095595;28;20024;-68
2021/04/23 04:34:13;;;;;;;11.80;8.23;;;3.40;99.60;;;;;;2100372;28;20020;-68
2021/04/23 04:35:14;;;;;;;14.63;7.68;;;3.50;99.80;;;;;;2104388;28;20479;-68
2021/04/23 04:36:15;;;;;;;12.18;7.97;;;3.40;99.80;;;;;;2095199;28;20449;-68
2021/04/23 04:37:15;;;;;;;14.23;8.68;;;3.40;99.90;;;;;;2091060;28;20032;-68
2021/04/23 04:38:17;;;;;;;13.48;7.88;;;3.50;99.90;;;;;;2092433;28;20033;-68
2021/04/23 04:39:17;;;;;;;11.10;7.97;;;3.50;99.90;;;;;;2096605;28;20081;-68
2021/04/23 04:40:19;;;;;;;15.05;8.70;;;3.40;99.90;;;;;;2097255;28;20024;-68
2021/04/23 04:41:19;;;;;;;11.85;8.65;;;3.40;99.90;;;;;;2097398;28;20044;-68
2021/04/23 04:42:20;;;;;;;12.07;7.45;;;3.40;99.90;;;;;;2092354;28;20048;-68
2021/04/23 04:43:21;;;;;;;10.02;8.15;;;3.40;99.90;;;;;;2090666;28;20108;-68
2021/04/23 04:44:21;;;;;;;14.27;8.00;;;3.40;99.90;;;;;;2091996;28;20036;-68
2021/04/23 04:45:25;;;;;;;11.35;8.07;;;3.40;99.90;;;;;;2092090;28;20134;-68
2021/04/23 04:46:26;;;;;;;14.23;8.52;;;3.40;99.90;;;;;;2093512;28;20042;-68
2021/04/23 04:47:29;;;;;;;12.85;8.07;;;3.40;99.90;;;;;;2093215;28;20104;-68
2021/04/23 04:48:30;;;;;;;13.65;8.30;;;3.40;99.90;;;;;;2091391;28;20025;-68
2021/04/23 04:49:31;;;;;;;11.25;7.57;;;3.40;99.90;;;;;;2092335;28;20082;-68
2021/04/23 04:50:39;;;;;;;10.77;8.70;;;3.40;99.90;;;;;;2092162;28;20033;-68
2021/04/23 04:51:40;;;;;;;12.95;8.57;;;3.40;99.90;;;;;;2090686;28;20031;-68
2021/04/23 04:52:40;;;;;;;14.25;8.65;;;3.40;99.90;;;;;;2088793;28;20047;-68
2021/04/23 04:53:42;;;;;;;8.90;7.10;;;3.40;99.90;;;;;;2092377;28;20154;-68
2021/04/23 04:54:43;;;;;;;14.65;8.90;;;3.40;99.90;;;;;;2096594;28;20043;-68
2021/04/23 04:55:47;;;;;;;12.32;7.72;;;3.40;99.90;;;;;;2094254;28;20016;-68
2021/04/23 04:56:47;;;;;;;12.40;7.88;;;3.40;99.90;;;;;;2093316;28;20024;-68
2021/04/23 04:57:48;;;;;;;14.77;8.57;;;3.50;99.90;;;;;;2096829;28;20581;-68
2021/04/23 04:58:49;;;;;;;12.48;8.43;;;3.50;99.90;;;;;;2097384;28;20038;-68
2021/04/23 04:59:49;;;;;;;14.85;8.88;;;3.40;99.90;;;;;;2094520;28;20021;-68
2021/04/23 05:00:50;;;;;;;12.90;8.73;;;3.50;99.90;;;;;;2094510;28;20025;-68
2021/04/23 05:01:51;;;;;;;15.60;9.77;;;3.50;99.90;;;;;;2097623;28;20052;-68
2021/04/23 05:02:53;;;;;;;13.82;9.07;;;3.50;99.90;;;;;;2096981;28;20028;-68
2021/04/23 05:03:53;;;;;;;12.95;8.27;;;3.50;99.90;;;;;;2097560;28;20036;-68
2021/04/23 05:04:54;;;;;;;12.90;8.52;;;3.50;99.90;;;;;;2095569;28;20031;-68
2021/04/23 05:05:55;;;;;;;11.73;9.15;;;3.50;99.90;;;;;;2097530;28;20024;-68
2021/04/23 05:06:55;;;;;;;14.25;9.02;;;3.50;99.90;;;;;;2092821;28;20040;-68
2021/04/23 05:07:56;;;;;;;14.55;8.82;;;3.50;99.90;;;;;;2094498;28;20032;-68
2021/04/23 05:08:56;;;;;;;12.93;8.40;;;3.50;99.90;;;;;;2097591;28;20428;-68
2021/04/23 05:09:58;;;;;;;17.52;9.32;;;3.50;99.90;;;;;;2097610;28;20025;-68
2021/04/23 05:10:58;;;;;;;12.70;9.23;;;3.60;99.90;;;;;;2097228;28;20051;-68
2021/04/23 05:11:59;;;;;;;18.55;10.07;;;3.50;99.90;;;;;;2091261;28;20048;-68
2021/04/23 05:12:59;;;;;;;15.07;9.52;;;3.50;99.90;;;;;;2096315;28;20024;-68
2021/04/23 05:14:00;;;;;;;17.55;9.68;;;3.60;99.90;;;;;;2097614;28;20025;-68
2021/04/23 05:15:01;;;;;;;15.43;9.55;;;3.50;99.90;;;;;;2094060;28;20055;-68
2021/04/23 05:16:02;;;;;;;19.50;10.20;;;3.60;99.90;;;;;;2097377;28;20031;-68
2021/04/23 05:17:02;;;;;;;14.75;9.38;;;3.60;99.90;;;;;;2097569;28;20027;-68
2021/04/23 05:18:04;;;;;;;17.90;10.10;;;3.60;99.90;;;;;;2094012;28;20035;-68
2021/04/23 05:19:04;;;;;;;16.67;10.25;;;3.70;99.90;;;;;;2093511;28;20484;-68
2021/04/23 05:20:06;;;;;;;16.70;10.27;;;3.80;99.90;;;;;;2093721;28;20561;-68
2021/04/23 05:21:07;;;;;;;16.15;10.63;;;3.80;99.90;;;;;;2091452;28;20384;-68
2021/04/23 05:22:08;;;;;;;16.70;10.80;;;3.90;99.90;;;;;;2090229;28;20012;-68
2021/04/23 05:23:08;;;;;;;16.10;10.23;;;3.90;99.90;;;;;;2090374;28;20087;-68
2021/04/23 05:24:09;;;;;;;14.25;10.50;;;4.00;99.90;;;;;;2090199;28;20020;-68